Time;durP1;ratioP1;P1;durP2;ratioP2;P2;SDS_P1;SDS_P2;PMS_P1;PMS_P2;Temp;Humidity;BMP_temperature;BMP_pressure;BME280_temperature;BME280_humidity;BME280_pressure;Samples;Min_cycle;Max_cycle;Signal;HPM_P1;HPM_P2
2020/12/31 00:01:45;;;;;;;20.33;13.40;;;;;;;4.05;100.00;99526.88;5229527;28;20612;-79
2020/12/31 00:04:15;;;;;;;22.95;13.40;;;;;;;4.04;100.00;99517.44;5233358;28;20490;-79
2020/12/31 00:06:45;;;;;;;21.77;13.45;;;;;;;4.03;100.00;99522.63;5232040;28;20020;-79
2020/12/31 00:09:16;;;;;;;21.52;13.07;;;;;;;4.00;100.00;99527.88;5233634;28;20117;-79
2020/12/31 00:11:46;;;;;;;21.23;12.80;;;;;;;4.07;100.00;99525.09;5249062;28;20031;-79
2020/12/31 00:14:16;;;;;;;22.45;13.32;;;;;;;3.93;100.00;99519.44;5243279;28;20082;-79
2020/12/31 00:16:46;;;;;;;22.08;12.57;;;;;;;3.96;100.00;99526.28;5242503;28;20103;-79
2020/12/31 00:19:17;;;;;;;22.80;13.48;;;;;;;3.73;100.00;99518.22;5247413;28;20400;-79
2020/12/31 00:21:47;;;;;;;17.55;12.02;;;;;;;3.79;100.00;99523.28;5240518;28;20029;-79
2020/12/31 00:24:17;;;;;;;19.73;11.75;;;;;;;3.94;100.00;99530.63;5241919;28;20475;-79
2020/12/31 00:26:48;;;;;;;17.77;11.77;;;;;;;3.86;100.00;99527.38;5242064;28;20040;-79
2020/12/31 00:29:18;;;;;;;22.55;11.48;;;;;;;3.70;100.00;99524.34;5242340;28;20051;-79
2020/12/31 00:31:48;;;;;;;20.90;11.95;;;;;;;3.63;100.00;99530.53;5241271;28;20027;-79
2020/12/31 00:34:18;;;;;;;18.73;10.50;;;;;;;3.55;100.00;99523.84;5241898;28;20032;-79
2020/12/31 00:36:50;;;;;;;15.32;10.70;;;;;;;3.43;100.00;99525.91;5242382;28;20021;-79
2020/12/31 00:39:20;;;;;;;14.68;10.15;;;;;;;3.40;100.00;99536.31;5233610;28;20052;-79
2020/12/31 00:41:51;;;;;;;17.77;10.30;;;;;;;3.33;100.00;99532.19;5240749;28;20497;-79
2020/12/31 00:44:21;;;;;;;15.77;9.50;;;;;;;3.32;100.00;99541.63;5241914;28;20036;-79
2020/12/31 00:46:51;;;;;;;15.52;9.93;;;;;;;3.27;100.00;99538.31;5242831;28;20032;-79
2020/12/31 00:49:21;;;;;;;14.48;9.50;;;;;;;3.29;100.00;99533.97;5241902;28;20032;-79
2020/12/31 00:51:52;;;;;;;15.45;9.40;;;;;;;3.18;100.00;99546.25;5240447;28;20009;-79
2020/12/31 00:54:22;;;;;;;16.65;9.40;;;;;;;3.10;100.00;99549.91;5241373;28;20028;-79
2020/12/31 00:56:52;;;;;;;14.77;9.25;;;;;;;3.14;100.00;99552.38;5242130;28;20040;-79
2020/12/31 00:59:22;;;;;;;15.45;9.43;;;;;;;3.21;100.00;99547.94;5240622;28;20103;-79
2020/12/31 01:01:53;;;;;;;14.93;8.73;;;;;;;3.18;100.00;99555.75;5241774;28;20026;-79
2020/12/31 01:04:23;;;;;;;14.18;8.57;;;;;;;2.95;100.00;99540.78;5239998;28;20017;-79
2020/12/31 01:06:53;;;;;;;13.65;9.13;;;;;;;2.79;100.00;99544.56;5242128;28;20025;-79
2020/12/31 01:09:23;;;;;;;14.18;8.57;;;;;;;2.71;100.00;99550.75;5235003;28;20032;-79
2020/12/31 01:11:55;;;;;;;14.23;9.55;;;;;;;2.51;100.00;99550.31;5240621;28;20029;-79
2020/12/31 01:14:26;;;;;;;12.40;8.40;;;;;;;2.61;100.00;99554.38;5242330;28;20103;-80
2020/12/31 01:16:56;;;;;;;15.45;9.20;;;;;;;2.55;100.00;99550.22;5245909;28;20539;-81
2020/12/31 01:19:26;;;;;;;12.68;8.80;;;;;;;2.35;100.00;99554.06;5246153;28;20028;-81
2020/12/31 01:21:56;;;;;;;14.23;9.20;;;;;;;2.26;100.00;99552.53;5245859;28;20020;-81
2020/12/31 01:24:27;;;;;;;13.15;9.48;;;;;;;2.20;100.00;99552.59;5246253;28;20078;-80
2020/12/31 01:26:57;;;;;;;16.50;10.10;;;;;;;2.15;100.00;99551.03;5245810;28;20020;-80
2020/12/31 01:29:27;;;;;;;15.80;10.05;;;;;;;2.11;100.00;99542.50;5244168;28;20028;-79
2020/12/31 01:31:57;;;;;;;13.85;9.55;;;;;;;2.01;100.00;99550.41;5245653;28;20521;-80
2020/12/31 01:34:28;;;;;;;18.23;10.05;;;;;;;1.88;100.00;99551.50;5231187;28;20099;-80
2020/12/31 01:36:58;;;;;;;16.73;10.68;;;;;;;1.84;100.00;99553.28;5244547;28;20032;-80
2020/12/31 01:39:29;;;;;;;13.45;10.02;;;;;;;1.87;100.00;99557.53;5237720;28;20052;-80
2020/12/31 01:42:05;;;;;;;18.35;10.80;;;;;;;1.83;100.00;99555.91;5244761;28;20028;-80
2020/12/31 01:44:36;;;;;;;15.82;10.73;;;;;;;1.82;100.00;99549.03;5244903;28;20032;-78
2020/12/31 01:47:08;;;;;;;15.02;10.25;;;;;;;1.82;100.00;99549.88;5245594;28;20047;-78
2020/12/31 01:49:40;;;;;;;16.90;10.35;;;;;;;1.83;100.00;99546.44;5245349;28;20036;-81
2020/12/31 01:52:13;;;;;;;16.33;10.35;;;;;;;1.97;100.00;99548.78;5245004;28;20028;-80
2020/12/31 01:54:46;;;;;;;15.95;9.30;;;;;;;2.03;100.00;99551.25;5244925;28;20088;-84
2020/12/31 01:57:17;;;;;;;14.20;9.20;;;;;;;2.13;100.00;99545.06;5246084;28;20372;-82
2020/12/31 01:59:47;;;;;;;13.82;8.63;;;;;;;2.17;100.00;99551.84;5244770;28;20035;-80
2020/12/31 02:02:17;;;;;;;12.13;8.50;;;;;;;2.16;100.00;99550.16;5242451;28;20081;-80
2020/12/31 02:04:50;;;;;;;12.70;8.60;;;;;;;2.30;100.00;99548.16;5234832;28;20104;-80
2020/12/31 02:07:21;;;;;;;13.43;8.25;;;;;;;2.19;100.00;99555.25;5234698;28;20024;-80
2020/12/31 02:09:51;;;;;;;11.07;7.40;;;;;;;2.27;100.00;99558.50;5235613;28;20854;-80
2020/12/31 02:12:22;;;;;;;14.10;7.97;;;;;;;2.28;100.00;99555.06;5235543;28;20031;-80
2020/12/31 02:14:55;;;;;;;11.55;6.95;;;;;;;2.24;100.00;99556.00;5234244;28;20016;-80
2020/12/31 02:17:25;;;;;;;13.57;7.35;;;;;;;2.27;100.00;99558.50;5234494;28;20028;-80
2020/12/31 02:19:56;;;;;;;12.93;7.40;;;;;;;2.36;100.00;99563.50;5236976;28;20550;-80
2020/12/31 02:22:27;;;;;;;11.68;6.35;;;;;;;2.28;100.00;99557.63;5236019;28;20490;-80
2020/12/31 02:24:58;;;;;;;10.65;6.50;;;;;;;2.31;100.00;99561.00;5234503;28;20103;-80
2020/12/31 02:27:28;;;;;;;8.73;6.28;;;;;;;2.20;100.00;99568.06;5235206;28;20142;-80
2020/12/31 02:29:58;;;;;;;10.13;6.50;;;;;;;2.15;100.00;99561.34;5231440;28;20099;-80
2020/12/31 02:32:29;;;;;;;11.50;6.43;;;;;;;2.07;100.00;99563.19;5234180;28;20106;-80
2020/12/31 02:34:59;;;;;;;9.55;5.88;;;;;;;2.21;100.00;99571.50;5234290;28;20156;-80
2020/12/31 02:37:29;;;;;;;11.07;5.80;;;;;;;2.27;100.00;99568.81;5232369;28;20859;-80
2020/12/31 02:40:00;;;;;;;11.43;6.25;;;;;;;2.35;100.00;99567.78;5238096;28;20039;-80
2020/12/31 02:42:30;;;;;;;9.88;5.80;;;;;;;2.36;100.00;99563.50;5235833;28;20028;-80
2020/12/31 02:45:00;;;;;;;9.38;5.75;;;;;;;2.31;100.00;99562.75;5232614;28;20035;-80
2020/12/31 02:47:38;;;;;;;8.95;5.25;;;;;;;2.40;100.00;99565.13;5234883;28;20811;-78
2020/12/31 02:50:08;;;;;;;7.80;4.88;;;;;;;2.37;100.00;99565.19;5234986;28;20115;-80
2020/12/31 02:52:38;;;;;;;9.40;5.70;;;;;;;2.26;100.00;99561.97;5233858;28;20024;-77
2020/12/31 02:55:09;;;;;;;8.60;5.43;;;;;;;2.25;100.00;99579.16;5238770;28;20439;-80
2020/12/31 02:57:39;;;;;;;7.85;5.22;;;;;;;2.24;100.00;99574.03;5244573;28;20111;-81
2020/12/31 03:00:09;;;;;;;8.35;5.68;;;;;;;2.00;100.00;99569.34;5235425;28;20035;-79
2020/12/31 03:02:39;;;;;;;10.02;6.20;;;;;;;1.87;100.00;99568.69;5231175;28;20021;-81
2020/12/31 03:05:10;;;;;;;14.18;6.57;;;;;;;1.72;100.00;99568.09;5233428;28;20558;-81
2020/12/31 03:07:40;;;;;;;10.40;6.60;;;;;;;1.65;100.00;99563.94;5233062;28;20552;-81
2020/12/31 03:10:10;;;;;;;9.60;6.60;;;;;;;1.70;100.00;99559.53;5237033;28;20052;-81
2020/12/31 03:12:41;;;;;;;11.45;6.95;;;;;;;1.74;100.00;99556.03;5235678;28;20025;-80
2020/12/31 03:15:13;;;;;;;12.55;7.00;;;;;;;1.90;100.00;99545.47;5229740;28;20482;-80
2020/12/31 03:17:43;;;;;;;11.07;6.28;;;;;;;2.01;100.00;99547.84;5243129;28;20028;-78
2020/12/31 03:20:14;;;;;;;8.60;5.20;;;;;;;2.05;100.00;99547.78;5243932;28;20142;-79
2020/12/31 03:22:44;;;;;;;9.75;4.88;;;;;;;2.12;100.00;99543.31;5242268;28;20506;-80
2020/12/31 03:25:14;;;;;;;7.70;5.00;;;;;;;2.22;100.00;99537.13;5241382;28;20024;-80
2020/12/31 03:27:45;;;;;;;8.75;5.00;;;;;;;2.23;100.00;99538.84;5243440;28;20081;-80
2020/12/31 03:30:15;;;;;;;10.32;4.90;;;;;;;2.25;100.00;99529.34;5242048;28;20107;-81
2020/12/31 03:32:45;;;;;;;10.48;5.07;;;;;;;2.25;100.00;99534.50;5243428;28;20017;-81
2020/12/31 03:35:15;;;;;;;8.27;4.75;;;;;;;2.34;100.00;99527.44;5243400;28;20060;-81
2020/12/31 03:37:46;;;;;;;9.27;4.78;;;;;;;2.21;100.00;99536.31;5240031;28;20024;-81
2020/12/31 03:40:16;;;;;;;8.65;4.93;;;;;;;2.22;100.00;99535.44;5235835;28;20024;-79
2020/12/31 03:42:46;;;;;;;11.15;4.88;;;;;;;2.08;99.75;99532.25;5241883;28;20033;-80
2020/12/31 03:45:17;;;;;;;11.02;5.35;;;;;;;1.92;100.00;99535.97;5242322;28;20093;-81
2020/12/31 03:47:47;;;;;;;10.07;5.25;;;;;;;1.73;100.00;99538.88;5241998;28;20053;-80
2020/12/31 03:50:17;;;;;;;8.90;5.10;;;;;;;1.57;100.00;99537.44;5242676;28;20024;-80
2020/12/31 03:52:48;;;;;;;8.07;5.32;;;;;;;1.47;100.00;99535.91;5242548;28;20017;-80
2020/12/31 03:55:19;;;;;;;8.23;5.70;;;;;;;1.46;100.00;99529.06;5242561;28;20079;-80
2020/12/31 03:57:49;;;;;;;8.48;5.90;;;;;;;1.35;100.00;99536.09;5243311;28;20048;-80
2020/12/31 04:00:20;;;;;;;9.18;5.60;;;;;;;1.33;100.00;99536.97;5231661;28;20505;-80
2020/12/31 04:02:50;;;;;;;9.38;5.85;;;;;;;1.28;100.00;99539.66;5234562;28;20017;-81
2020/12/31 04:05:20;;;;;;;10.05;5.80;;;;;;;1.31;100.00;99539.59;5242644;28;20032;-80
2020/12/31 04:07:50;;;;;;;10.80;5.65;;;;;;;1.15;100.00;99535.56;5240243;28;20020;-80
2020/12/31 04:10:21;;;;;;;8.93;5.80;;;;;;;1.21;100.00;99540.59;5235271;28;20028;-81
2020/12/31 04:12:51;;;;;;;10.38;5.90;;;;;;;1.15;100.00;99537.25;5236461;28;20016;-81
2020/12/31 04:15:21;;;;;;;9.18;5.57;;;;;;;1.19;100.00;99524.34;5231178;28;20052;-78
2020/12/31 04:17:51;;;;;;;10.50;5.90;;;;;;;1.23;100.00;99523.41;5232406;28;20062;-78
2020/12/31 04:20:22;;;;;;;8.73;5.35;;;;;;;1.24;100.00;99522.53;5233233;28;20082;-77
2020/12/31 04:22:52;;;;;;;10.27;5.45;;;;;;;1.24;100.00;99525.09;5234179;28;20052;-79
2020/12/31 04:25:22;;;;;;;8.82;5.28;;;;;;;1.23;100.00;99525.97;5232631;28;20037;-81
2020/12/31 04:27:52;;;;;;;7.78;5.03;;;;;;;1.26;100.00;99525.09;5231985;28;20524;-81
2020/12/31 04:30:23;;;;;;;10.38;5.20;;;;;;;1.57;100.00;99516.84;5233578;28;20547;-81
2020/12/31 04:32:53;;;;;;;7.03;4.70;;;;;;;1.64;100.00;99518.47;5236989;28;20013;-81
2020/12/31 04:35:24;;;;;;;9.88;4.95;;;;;;;1.81;100.00;99526.75;5231178;28;20032;-79
2020/12/31 04:37:54;;;;;;;11.02;5.57;;;;;;;1.73;100.00;99523.44;5232076;28;20051;-79
2020/12/31 04:40:24;;;;;;;7.60;5.10;;;;;;;1.82;100.00;99524.13;5233410;28;20017;-80
2020/12/31 04:42:56;;;;;;;10.05;5.97;;;;;;;1.88;100.00;99520.59;5236404;28;20589;-81
2020/12/31 04:45:28;;;;;;;9.45;5.82;;;;;;;1.94;100.00;99520.47;5231136;28;20053;-81
2020/12/31 04:48:25;;;;;;;9.55;5.43;;;;;;;2.11;100.00;99526.16;5231427;28;20033;-80
2020/12/31 04:50:57;;;;;;;9.75;5.90;;;;;;;2.17;100.00;99520.91;5237406;28;20020;-80
2020/12/31 04:53:27;;;;;;;8.70;5.18;;;;;;;2.16;100.00;99522.63;5238707;28;20028;-80
2020/12/31 04:56:01;;;;;;;9.48;5.45;;;;;;;2.02;100.00;99516.06;5235260;28;20509;-80
2020/12/31 04:58:31;;;;;;;9.45;5.38;;;;;;;2.07;100.00;99524.53;5236112;28;20036;-81
2020/12/31 05:01:01;;;;;;;8.55;5.72;;;;;;;2.10;100.00;99524.47;5234715;28;20038;-81
2020/12/31 05:03:31;;;;;;;9.82;5.45;;;;;;;2.15;100.00;99518.38;5236202;28;20020;-79
2020/12/31 05:06:04;;;;;;;10.88;5.28;;;;;;;2.37;100.00;99521.38;5237946;28;20028;-80
2020/12/31 05:08:34;;;;;;;9.45;5.35;;;;;;;2.35;100.00;99520.56;5240129;28;20028;-81
2020/12/31 05:11:05;;;;;;;8.75;6.03;;;;;;;2.42;100.00;99522.13;5239022;28;20032;-80
2020/12/31 05:13:44;;;;;;;6.97;5.22;;;;;;;2.35;100.00;99523.97;5237927;28;20120;-79
2020/12/31 05:16:27;;;;;;;8.10;5.22;;;;;;;2.50;100.00;99520.25;5235922;28;20048;-80
2020/12/31 05:18:57;;;;;;;9.32;5.40;;;;;;;2.49;100.00;99523.72;5236152;28;20024;-80
2020/12/31 05:21:27;;;;;;;8.80;5.22;;;;;;;2.47;100.00;99513.44;5234861;28;20016;-81
2020/12/31 05:24:12;;;;;;;8.75;5.50;;;;;;;2.49;100.00;99521.16;5239055;28;20221;-80
2020/12/31 05:26:42;;;;;;;9.10;5.18;;;;;;;2.54;100.00;99524.47;5236210;28;20031;-78
2020/12/31 05:29:23;;;;;;;8.20;4.78;;;;;;;2.63;100.00;99525.13;5240745;28;20032;-80
2020/12/31 05:31:54;;;;;;;10.32;5.20;;;;;;;2.60;100.00;99519.16;5246394;28;20173;-80
2020/12/31 05:34:31;;;;;;;9.80;5.40;;;;;;;2.64;100.00;99537.13;5244274;28;20020;-79
2020/12/31 05:37:14;;;;;;;9.65;5.10;;;;;;;2.54;100.00;99542.50;5245807;28;20079;-80
2020/12/31 05:39:59;;;;;;;11.32;5.82;;;;;;;2.49;100.00;99549.50;5238600;28;20021;-80
2020/12/31 05:42:31;;;;;;;10.20;5.45;;;;;;;2.46;100.00;99559.84;5246441;28;20506;-79
2020/12/31 05:45:15;;;;;;;8.85;5.60;;;;;;;2.54;100.00;99552.84;5242972;28;20123;-81
2020/12/31 05:47:53;;;;;;;9.40;5.50;;;;;;;2.57;100.00;99545.03;5240972;28;20518;-80
2020/12/31 05:50:26;;;;;;;9.02;5.10;;;;;;;2.72;100.00;99547.28;5241300;28;20028;-80
2020/12/31 05:52:57;;;;;;;9.38;5.45;;;;;;;2.72;100.00;99547.28;5246687;28;20108;-80
2020/12/31 05:55:28;;;;;;;10.35;5.30;;;;;;;2.85;100.00;99546.16;5246356;28;20461;-80
2020/12/31 05:58:06;;;;;;;8.45;5.50;;;;;;;2.94;100.00;99540.78;5244887;28;20024;-79
2020/12/31 06:00:43;;;;;;;10.05;5.90;;;;;;;2.88;100.00;99543.50;5246386;28;20545;-81
2020/12/31 06:03:24;;;;;;;10.27;5.85;;;;;;;2.88;100.00;99543.50;5244969;28;20055;-80
2020/12/31 06:06:04;;;;;;;7.80;5.35;;;;;;;2.86;100.00;99540.13;5246131;28;20017;-80
2020/12/31 06:08:47;;;;;;;7.63;4.65;;;;;;;2.86;100.00;99538.38;5246935;28;20031;-80
2020/12/31 06:11:29;;;;;;;8.43;5.38;;;;;;;2.89;100.00;99550.38;5240519;28;20107;-80
2020/12/31 06:14:02;;;;;;;7.53;5.00;;;;;;;2.77;100.00;99546.31;5245170;28;20031;-78
2020/12/31 06:16:37;;;;;;;10.25;5.25;;;;;;;2.64;100.00;99544.00;5246782;28;20028;-80
2020/12/31 06:19:32;;;;;;;11.02;5.65;;;;;;;2.54;100.00;99543.34;5244908;28;20537;-81
2020/12/31 06:22:06;;;;;;;9.00;5.45;;;;;;;2.35;100.00;99546.34;5243708;28;20077;-81
2020/12/31 06:24:45;;;;;;;9.25;5.45;;;;;;;2.13;100.00;99555.34;5244273;28;20078;-80
2020/12/31 06:27:19;;;;;;;9.93;5.53;;;;;;;2.13;100.00;99565.66;5245066;28;20515;-80
2020/12/31 06:29:50;;;;;;;9.05;5.57;;;;;;;2.25;100.00;99562.84;5243201;28;20031;-80
2020/12/31 06:32:30;;;;;;;8.75;5.28;;;;;;;2.22;100.00;99550.03;5244808;28;20012;-80
2020/12/31 06:35:09;;;;;;;8.82;5.00;;;;;;;2.14;100.00;99550.16;5244448;28;20032;-80
2020/12/31 06:37:39;;;;;;;8.43;5.30;;;;;;;2.03;100.00;99556.38;5245196;28;20024;-80
2020/12/31 06:40:28;;;;;;;9.23;6.05;;;;;;;1.85;100.00;99560.13;5234568;28;20032;-80
2020/12/31 06:43:14;;;;;;;12.65;6.20;;;;;;;1.74;100.00;99563.75;5244680;28;20115;-78
2020/12/31 06:45:47;;;;;;;9.40;6.45;;;;;;;1.65;100.00;99558.78;5231292;28;20033;-80
2020/12/31 06:48:26;;;;;;;9.27;6.10;;;;;;;1.63;100.00;99563.09;5238912;28;20024;-81
2020/12/31 06:50:58;;;;;;;11.23;6.60;;;;;;;1.61;100.00;99571.72;5245515;28;20040;-79
2020/12/31 06:53:46;;;;;;;10.38;6.60;;;;;;;1.59;100.00;99570.91;5244796;28;20552;-80
2020/12/31 06:56:36;;;;;;;11.52;6.65;;;;;;;1.59;100.00;99571.72;5246502;28;20604;-81
2020/12/31 06:59:30;;;;;;;10.65;6.63;;;;;;;1.60;100.00;99578.56;5246656;28;20032;-82
2020/12/31 07:02:02;;;;;;;11.60;6.35;;;;;;;1.60;100.00;99578.56;5246810;28;20020;-81
2020/12/31 07:04:34;;;;;;;12.65;6.95;;;;;;;1.67;100.00;99580.19;5244984;28;20024;-81
2020/12/31 07:07:19;;;;;;;10.20;6.25;;;;;;;1.66;100.00;99578.50;5246327;28;20024;-81
2020/12/31 07:10:08;;;;;;;10.32;6.78;;;;;;;1.68;100.00;99571.59;5237976;28;20100;-80
2020/12/31 07:12:41;;;;;;;10.93;6.72;;;;;;;1.69;100.00;99578.44;5245502;28;20074;-80
2020/12/31 07:15:17;;;;;;;10.23;6.15;;;;;;;1.65;100.00;99571.66;5245784;28;20024;-82
2020/12/31 07:17:48;;;;;;;14.45;7.13;;;;;;;1.66;100.00;99568.19;5246350;28;20024;-79
2020/12/31 07:20:18;;;;;;;11.15;6.80;;;;;;;1.79;100.00;99577.44;5244141;28;20028;-82
2020/12/31 07:22:51;;;;;;;14.07;6.95;;;;;;;1.96;100.00;99562.53;5244140;28;20032;-79
2020/12/31 07:25:21;;;;;;;11.63;6.82;;;;;;;2.09;100.00;99564.00;5246329;28;20118;-81
2020/12/31 07:27:52;;;;;;;10.38;6.88;;;;;;;2.12;100.00;99564.81;5246628;28;20048;-80
2020/12/31 07:30:23;;;;;;;13.50;6.97;;;;;;;1.98;100.00;99563.38;5247086;28;20024;-80
2020/12/31 07:32:56;;;;;;;10.85;6.60;;;;;;;1.81;100.00;99568.78;5245633;28;20045;-81
2020/12/31 07:35:34;;;;;;;9.77;6.63;;;;;;;1.86;100.00;99571.28;5247633;28;20024;-80
2020/12/31 07:38:18;;;;;;;10.82;6.97;;;;;;;1.88;100.00;99566.97;5245972;28;20024;-80
2020/12/31 07:40:51;;;;;;;10.70;6.60;;;;;;;1.85;100.00;99565.28;5238144;28;20101;-79
2020/12/31 07:43:26;;;;;;;10.13;6.80;;;;;;;1.93;100.00;99567.72;5241237;28;20126;-80
2020/12/31 07:45:58;;;;;;;10.20;6.45;;;;;;;2.00;100.00;99567.59;5234547;28;20097;-81
2020/12/31 07:48:30;;;;;;;10.73;6.88;;;;;;;1.71;100.00;99571.53;5235529;28;20032;-81
2020/12/31 07:51:02;;;;;;;13.13;7.78;;;;;;;1.56;100.00;99576.94;5236896;28;20028;-80
2020/12/31 07:53:35;;;;;;;9.52;6.55;;;;;;;1.75;100.00;99570.59;5231955;28;20044;-80
2020/12/31 07:56:11;;;;;;;10.30;6.80;;;;;;;1.88;100.00;99570.41;5234042;28;20382;-77
2020/12/31 07:58:42;;;;;;;9.43;6.47;;;;;;;1.94;100.00;99566.84;5241149;28;20025;-79
2020/12/31 08:01:13;;;;;;;10.85;7.35;;;;;;;1.97;100.00;99570.22;5245154;28;20476;-79
2020/12/31 08:03:43;;;;;;;11.40;6.53;;;;;;;1.79;100.00;99565.38;5246449;28;20033;-78
2020/12/31 08:06:13;;;;;;;12.77;7.68;;;;;;;1.55;100.00;99566.69;5247333;28;20043;-81
2020/12/31 08:08:43;;;;;;;15.93;7.82;;;;;;;1.58;100.00;99569.19;5245830;28;20391;-81
2020/12/31 08:11:15;;;;;;;12.77;8.02;;;;;;;1.56;100.00;99571.78;5239490;28;20020;-80
2020/12/31 08:13:47;;;;;;;13.13;8.30;;;;;;;1.52;100.00;99570.13;5237899;28;20041;-81
2020/12/31 08:16:17;;;;;;;12.35;8.77;;;;;;;1.61;100.00;99564.81;5226869;28;20031;-81
2020/12/31 08:18:47;;;;;;;12.85;8.07;;;;;;;1.67;100.00;99562.16;5225193;28;20024;-77
2020/12/31 08:21:19;;;;;;;12.13;7.57;;;;;;;1.95;100.00;99571.97;5225495;28;20025;-80
2020/12/31 08:24:10;;;;;;;12.07;7.88;;;;;;;2.29;100.00;99562.75;5225563;28;20021;-81
2020/12/31 08:26:55;;;;;;;11.43;7.43;;;;;;;2.27;100.00;99564.53;5232145;28;20047;-80
2020/12/31 08:29:26;;;;;;;12.57;7.32;;;;;;;2.21;100.00;99563.78;5236082;28;20577;-81
2020/12/31 08:32:02;;;;;;;14.65;7.68;;;;;;;2.32;100.00;99567.84;5233531;28;20499;-81
2020/12/31 08:34:37;;;;;;;12.20;7.50;;;;;;;2.28;100.00;99565.34;5232392;28;20033;-78
2020/12/31 08:37:07;;;;;;;11.57;7.32;;;;;;;2.25;100.00;99565.41;5231041;28;20036;-81
2020/12/31 08:39:40;;;;;;;15.18;8.20;;;;;;;2.23;100.00;99562.03;5234682;28;20024;-80
2020/12/31 08:42:14;;;;;;;12.30;7.60;;;;;;;2.41;100.00;99569.41;5236625;28;20645;-80
2020/12/31 08:44:44;;;;;;;13.23;8.02;;;;;;;2.51;100.00;99561.47;5234305;28;20029;-81
2020/12/31 08:47:25;;;;;;;10.68;7.53;;;;;;;2.48;100.00;99563.28;5236970;28;20025;-81
2020/12/31 08:49:57;;;;;;;12.45;7.82;;;;;;;2.52;100.00;99575.22;5229818;28;20036;-80
2020/12/31 08:52:27;;;;;;;12.00;7.80;;;;;;;2.63;100.00;99568.97;5237599;28;20087;-80
2020/12/31 08:55:08;;;;;;;12.60;7.80;;;;;;;2.66;100.00;99565.50;5242400;28;20534;-80
2020/12/31 08:57:39;;;;;;;13.52;7.50;;;;;;;2.64;100.00;99564.63;5242648;28;20022;-81
2020/12/31 09:00:09;;;;;;;12.32;7.72;;;;;;;2.51;100.00;99568.38;5241555;28;20029;-80
2020/12/31 09:02:39;;;;;;;11.60;7.88;;;;;;;2.51;100.00;99569.19;5242298;28;20378;-79
2020/12/31 09:05:14;;;;;;;10.35;7.53;;;;;;;2.67;100.00;99565.44;5239938;28;20044;-78
2020/12/31 09:07:45;;;;;;;11.23;7.63;;;;;;;2.66;100.00;99561.16;5243116;28;20112;-81
2020/12/31 09:10:18;;;;;;;10.60;7.40;;;;;;;2.76;100.00;99569.56;5245811;28;20116;-80
2020/12/31 09:12:48;;;;;;;11.38;7.32;;;;;;;2.77;100.00;99569.53;5242538;28;20028;-80
2020/12/31 09:15:19;;;;;;;11.00;7.32;;;;;;;2.64;100.00;99564.63;5242747;28;20112;-81
2020/12/31 09:17:50;;;;;;;11.50;8.02;;;;;;;2.76;100.00;99569.56;5242968;28;20024;-80
2020/12/31 09:20:30;;;;;;;11.75;8.00;;;;;;;2.95;100.00;99566.56;5243109;28;20017;-80
2020/12/31 09:23:08;;;;;;;10.18;6.95;;;;;;;3.02;100.00;99569.88;5242536;28;20032;-80
2020/12/31 09:25:49;;;;;;;10.60;7.47;;;;;;;3.11;100.00;99569.66;5242714;28;20024;-78
2020/12/31 09:28:19;;;;;;;12.60;7.63;;;;;;;3.06;100.00;99566.34;5241505;28;20029;-80
2020/12/31 09:30:49;;;;;;;10.85;6.97;;;;;;;3.04;100.00;99570.69;5241095;28;20390;-79
2020/12/31 09:33:22;;;;;;;10.82;7.03;;;;;;;3.09;100.00;99569.72;5239344;28;20017;-80
2020/12/31 09:35:52;;;;;;;11.98;7.57;;;;;;;3.20;99.83;99569.47;5240279;28;20460;-77
2020/12/31 09:38:22;;;;;;;10.13;6.95;;;;;;;3.32;98.90;99567.44;5242509;28;20020;-77
2020/12/31 09:40:52;;;;;;;13.60;6.68;;;;;;;3.30;99.38;99574.38;5245842;28;20038;-78
2020/12/31 09:43:23;;;;;;;11.50;7.10;;;;;;;3.23;99.63;99570.22;5237029;28;20052;-79
2020/12/31 09:45:53;;;;;;;9.98;7.00;;;;;;;3.13;100.00;99568.75;5245988;28;20425;-80
2020/12/31 09:48:23;;;;;;;11.63;7.10;;;;;;;3.22;100.00;99567.69;5252735;28;20531;-79
2020/12/31 09:50:53;;;;;;;13.25;7.93;;;;;;;3.19;100.00;99576.34;5245807;28;20848;-81
2020/12/31 09:53:24;;;;;;;12.32;7.57;;;;;;;3.17;100.00;99572.13;5246056;28;20020;-80
2020/12/31 09:55:54;;;;;;;11.18;7.22;;;;;;;3.01;100.00;99569.00;5251951;28;20035;-80
2020/12/31 09:58:24;;;;;;;11.65;7.63;;;;;;;2.99;100.00;99565.63;5247910;28;20021;-80
2020/12/31 10:00:54;;;;;;;11.00;7.30;;;;;;;3.27;100.00;99571.03;5244802;28;20461;-79
2020/12/31 10:03:25;;;;;;;11.80;7.20;;;;;;;3.25;100.00;99568.50;5236175;28;20039;-81
2020/12/31 10:05:55;;;;;;;11.75;7.38;;;;;;;3.31;100.00;99562.31;5246434;28;20486;-78
2020/12/31 10:08:27;;;;;;;10.27;7.15;;;;;;;3.35;100.00;99562.22;5244720;28;20029;-81
2020/12/31 10:10:57;;;;;;;10.93;7.40;;;;;;;3.39;100.00;99568.16;5241552;28;20028;-81
2020/12/31 10:13:28;;;;;;;11.23;7.50;;;;;;;3.51;100.00;99563.56;5247156;28;20081;-78
2020/12/31 10:15:59;;;;;;;11.23;7.47;;;;;;;3.55;100.00;99564.34;5242910;28;20025;-78
2020/12/31 10:18:30;;;;;;;12.93;7.35;;;;;;;3.52;100.00;99561.84;5233570;28;20025;-79
2020/12/31 10:21:01;;;;;;;13.13;7.65;;;;;;;3.58;100.00;99559.97;5240107;28;20082;-80
2020/12/31 10:23:31;;;;;;;12.60;7.57;;;;;;;3.64;99.53;99563.22;5252100;28;20032;-80
2020/12/31 10:26:01;;;;;;;10.75;7.20;;;;;;;3.70;99.10;99565.69;5249314;28;20036;-79
2020/12/31 10:28:32;;;;;;;12.95;7.65;;;;;;;3.66;99.29;99564.06;5246235;28;20046;-77
2020/12/31 10:31:02;;;;;;;9.93;7.43;;;;;;;3.73;99.19;99565.59;5254405;28;20066;-79
2020/12/31 10:33:32;;;;;;;10.25;7.00;;;;;;;3.84;99.30;99558.44;5245856;28;20040;-78
2020/12/31 10:36:02;;;;;;;10.00;7.07;;;;;;;3.88;99.61;99554.03;5249620;28;20023;-78
2020/12/31 10:38:33;;;;;;;10.57;7.35;;;;;;;3.74;99.71;99554.38;5245974;28;20016;-79
2020/12/31 10:41:03;;;;;;;11.18;6.97;;;;;;;3.79;99.99;99559.44;5249504;28;20025;-79
2020/12/31 10:43:33;;;;;;;10.32;7.72;;;;;;;3.97;100.00;99554.63;5240575;28;20029;-81
2020/12/31 10:46:03;;;;;;;11.90;7.07;;;;;;;3.81;98.92;99555.91;5225762;28;20060;-81
2020/12/31 10:48:34;;;;;;;11.13;7.07;;;;;;;4.01;99.76;99556.28;5226323;28;20071;-79
2020/12/31 10:51:04;;;;;;;10.30;7.15;;;;;;;3.99;99.02;99545.09;5248169;28;20016;-77
2020/12/31 10:53:34;;;;;;;10.93;7.07;;;;;;;4.08;99.47;99549.19;5253367;28;20036;-81
2020/12/31 10:56:04;;;;;;;9.45;6.90;;;;;;;4.07;99.13;99543.19;5247301;28;20554;-82
2020/12/31 10:58:36;;;;;;;10.30;6.93;;;;;;;4.10;99.26;99550.03;5257428;28;20394;-83
2020/12/31 11:01:06;;;;;;;9.90;6.85;;;;;;;4.14;99.39;99546.47;5247104;28;20024;-79
2020/12/31 11:03:36;;;;;;;14.85;7.97;;;;;;;4.03;99.58;99544.16;5245630;28;20070;-80
2020/12/31 11:06:07;;;;;;;11.68;7.47;;;;;;;3.98;98.68;99540.81;5245662;28;20028;-81
2020/12/31 11:08:37;;;;;;;9.50;7.05;;;;;;;4.10;99.15;99540.50;5244925;28;20039;-81
2020/12/31 11:11:07;;;;;;;14.98;7.45;;;;;;;4.09;98.71;99536.25;5251691;28;20557;-79
2020/12/31 11:13:38;;;;;;;11.35;7.25;;;;;;;4.24;98.73;99535.84;5245338;28;20028;-79
2020/12/31 11:16:08;;;;;;;11.68;6.85;;;;;;;4.30;98.22;99537.41;5243596;28;20116;-80
2020/12/31 11:18:40;;;;;;;10.02;7.07;;;;;;;4.15;98.24;99538.66;5248701;28;20028;-80
2020/12/31 11:21:13;;;;;;;10.75;6.57;;;;;;;4.19;98.25;99535.13;5245929;28;20115;-81
2020/12/31 11:23:44;;;;;;;10.40;6.13;;;;;;;4.23;97.57;99531.56;5245498;28;20020;-81
2020/12/31 11:26:16;;;;;;;8.60;6.05;;;;;;;4.35;97.08;99522.63;5245611;28;20029;-78
2020/12/31 11:28:48;;;;;;;9.38;5.68;;;;;;;4.41;96.86;99523.28;5244315;28;20048;-81
2020/12/31 11:31:27;;;;;;;11.07;6.03;;;;;;;4.27;97.27;99511.66;5249654;28;20023;-80
2020/12/31 11:34:00;;;;;;;10.45;6.53;;;;;;;4.41;97.97;99510.34;5247135;28;20020;-81
2020/12/31 11:36:31;;;;;;;9.45;5.78;;;;;;;4.29;97.77;99500.34;5247218;28;20051;-82
2020/12/31 11:39:02;;;;;;;9.43;6.25;;;;;;;4.32;97.44;99502.00;5247888;28;20081;-80
2020/12/31 11:41:32;;;;;;;9.30;5.78;;;;;;;4.36;97.39;99501.91;5250792;28;20038;-81
2020/12/31 11:44:03;;;;;;;8.13;5.53;;;;;;;4.42;96.33;99500.84;5247320;28;20021;-79
2020/12/31 11:46:33;;;;;;;8.55;5.13;;;;;;;4.41;96.18;99500.00;5245134;28;20044;-79
2020/12/31 11:49:03;;;;;;;9.10;5.80;;;;;;;4.38;96.86;99500.09;5229351;28;20024;-80
2020/12/31 11:51:33;;;;;;;7.90;5.13;;;;;;;4.38;96.27;99499.25;5245601;28;20142;-80
2020/12/31 11:54:04;;;;;;;7.95;5.07;;;;;;;4.40;96.77;99498.31;5247990;28;20558;-78